Time;durP1;ratioP1;P1;durP2;ratioP2;P2;SDS_P1;SDS_P2;PMS_P1;PMS_P2;Temp;Humidity;BMP_temperature;BMP_pressure;BME280_temperature;BME280_humidity;BME280_pressure;Samples;Min_cycle;Max_cycle;Signal;HPM_P1;HPM_P2
2023/08/01 00:03:38;;;;;;;;;;;23.60;62.90;;;;;;8407780;28;19913;-70
2023/08/01 00:07:38;;;;;;;;;;;23.60;62.80;;;;;;8406237;28;20354;-70
2023/08/01 00:11:39;;;;;;;;;;;23.60;63.00;;;;;;8413926;28;20306;-70
2023/08/01 00:15:39;;;;;;;;;;;23.60;63.00;;;;;;8432651;28;19908;-71
2023/08/01 00:19:40;;;;;;;;;;;23.60;62.90;;;;;;8423393;28;19900;-71
2023/08/01 00:23:40;;;;;;;;;;;23.60;62.80;;;;;;8423540;28;19920;-72
2023/08/01 00:27:41;;;;;;;;;;;23.60;62.80;;;;;;8416859;28;19928;-71
2023/08/01 00:31:41;;;;;;;;;;;23.60;62.80;;;;;;8383465;28;19913;-70
2023/08/01 00:35:42;;;;;;;;;;;23.60;62.80;;;;;;8383769;28;20285;-70
2023/08/01 00:39:42;;;;;;;;;;;23.60;62.80;;;;;;8365975;28;20293;-71
2023/08/01 00:43:43;;;;;;;;;;;23.60;62.40;;;;;;8401282;28;19921;-71
2023/08/01 00:47:44;;;;;;;;;;;23.50;62.30;;;;;;8400458;28;19922;-70
2023/08/01 00:51:44;;;;;;;;;;;23.60;63.10;;;;;;8401019;28;20274;-70
2023/08/01 00:55:45;;;;;;;;;;;23.60;63.40;;;;;;8399864;28;20004;-72
2023/08/01 00:59:45;;;;;;;;;;;23.70;63.40;;;;;;8365497;28;19919;-74
2023/08/01 01:03:46;;;;;;;;;;;23.70;63.00;;;;;;8382075;28;19919;-74
2023/08/01 01:07:47;;;;;;;;;;;23.70;62.80;;;;;;8381431;28;19924;-73
2023/08/01 01:11:47;;;;;;;;;;;23.70;62.80;;;;;;8381977;28;19913;-74
2023/08/01 01:15:48;;;;;;;;;;;23.70;63.00;;;;;;8399764;28;19913;-74
2023/08/01 01:19:48;;;;;;;;;;;23.70;62.70;;;;;;8399043;28;20417;-73
2023/08/01 01:23:50;;;;;;;;;;;23.70;63.10;;;;;;8398337;28;20130;-72
2023/08/01 01:27:52;;;;;;;;;;;23.70;62.80;;;;;;8399228;28;19927;-72
2023/08/01 01:31:52;;;;;;;;;;;23.70;62.80;;;;;;8381194;28;19962;-74
2023/08/01 01:35:54;;;;;;;;;;;23.70;62.60;;;;;;8398693;28;19948;-73
2023/08/01 01:39:54;;;;;;;;;;;23.70;62.40;;;;;;8399668;28;19931;-72
2023/08/01 01:43:55;;;;;;;;;;;23.70;62.90;;;;;;8392099;28;19916;-74
2023/08/01 01:47:55;;;;;;;;;;;23.70;62.50;;;;;;8375496;28;19921;-74
2023/08/01 01:51:56;;;;;;;;;;;23.70;62.80;;;;;;8390906;28;19981;-73
2023/08/01 01:55:56;;;;;;;;;;;23.70;62.50;;;;;;8384360;28;20003;-72
2023/08/01 01:59:57;;;;;;;;;;;23.70;62.80;;;;;;8380600;28;20378;-74
2023/08/01 02:03:57;;;;;;;;;;;23.70;62.70;;;;;;8380154;28;20026;-72
2023/08/01 02:07:58;;;;;;;;;;;23.70;62.60;;;;;;8397053;28;19928;-72
2023/08/01 02:11:59;;;;;;;;;;;23.70;62.50;;;;;;8397979;28;19919;-72
2023/08/01 02:15:59;;;;;;;;;;;23.70;62.40;;;;;;8379550;28;19920;-71
2023/08/01 02:20:00;;;;;;;;;;;23.70;62.40;;;;;;8398487;28;19973;-72
2023/08/01 02:24:00;;;;;;;;;;;23.70;62.40;;;;;;8381081;28;19919;-73
2023/08/01 02:28:01;;;;;;;;;;;23.70;62.40;;;;;;8398014;28;20366;-73
2023/08/01 02:32:01;;;;;;;;;;;23.70;62.50;;;;;;8399458;28;19915;-73
2023/08/01 02:36:03;;;;;;;;;;;23.70;62.40;;;;;;8399614;28;20243;-72
2023/08/01 02:40:07;;;;;;;;;;;23.70;62.30;;;;;;8402346;28;19920;-74
2023/08/01 02:44:07;;;;;;;;;;;23.70;62.40;;;;;;8362359;28;19912;-73
2023/08/01 02:48:08;;;;;;;;;;;23.70;62.30;;;;;;8396852;28;20023;-71
2023/08/01 02:52:10;;;;;;;;;;;23.70;62.30;;;;;;8377900;28;19908;-73
2023/08/01 02:56:10;;;;;;;;;;;23.70;62.30;;;;;;8378268;28;19917;-72
2023/08/01 03:00:11;;;;;;;;;;;23.70;62.10;;;;;;8378450;28;19916;-73
2023/08/01 03:04:11;;;;;;;;;;;23.70;62.20;;;;;;8396364;28;19934;-73
2023/08/01 03:08:12;;;;;;;;;;;23.70;62.30;;;;;;8396059;28;19921;-73
2023/08/01 03:12:13;;;;;;;;;;;23.70;62.30;;;;;;8374582;28;19957;-73
2023/08/01 03:16:13;;;;;;;;;;;23.70;62.30;;;;;;8385772;28;19913;-72
2023/08/01 03:20:14;;;;;;;;;;;23.70;62.40;;;;;;8393169;28;20063;-72
2023/08/01 03:24:15;;;;;;;;;;;23.70;62.40;;;;;;8393526;28;19913;-72
2023/08/01 03:28:15;;;;;;;;;;;23.60;62.30;;;;;;8393440;28;19912;-72
2023/08/01 03:32:16;;;;;;;;;;;23.60;62.40;;;;;;8393575;28;19958;-72
2023/08/01 03:36:16;;;;;;;;;;;23.60;62.40;;;;;;8359334;28;19919;-72
2023/08/01 03:40:17;;;;;;;;;;;23.50;62.30;;;;;;8375541;28;19919;-72
2023/08/01 03:44:17;;;;;;;;;;;23.50;62.30;;;;;;8393213;28;20301;-72
2023/08/01 03:48:18;;;;;;;;;;;23.50;63.20;;;;;;8398957;28;19999;-73
2023/08/01 03:52:19;;;;;;;;;;;23.50;62.30;;;;;;8382477;28;19919;-72
2023/08/01 03:56:19;;;;;;;;;;;23.50;62.30;;;;;;8381766;28;19924;-73
2023/08/01 04:00:20;;;;;;;;;;;23.50;62.30;;;;;;8382578;28;19959;-73
2023/08/01 04:04:21;;;;;;;;;;;23.50;62.30;;;;;;8400926;28;19924;-72
2023/08/01 04:08:21;;;;;;;;;;;23.50;62.30;;;;;;8399952;28;19925;-72
2023/08/01 04:12:22;;;;;;;;;;;23.50;62.40;;;;;;8399763;28;19954;-73
2023/08/01 04:16:22;;;;;;;;;;;23.50;62.40;;;;;;8399764;28;20305;-72
2023/08/01 04:20:23;;;;;;;;;;;23.40;62.40;;;;;;8399698;28;20426;-70
2023/08/01 04:24:25;;;;;;;;;;;23.40;62.50;;;;;;8399207;28;19923;-72
2023/08/01 04:28:25;;;;;;;;;;;23.50;62.50;;;;;;8366220;28;19909;-72
2023/08/01 04:32:26;;;;;;;;;;;23.40;62.50;;;;;;8332128;28;19913;-73
2023/08/01 04:36:26;;;;;;;;;;;23.40;62.50;;;;;;8365814;28;19956;-73
2023/08/01 04:40:27;;;;;;;;;;;23.40;62.50;;;;;;8331096;28;19919;-72
2023/08/01 04:44:29;;;;;;;;;;;23.40;62.50;;;;;;8365186;28;20378;-72
2023/08/01 04:48:29;;;;;;;;;;;23.40;62.40;;;;;;8347340;28;19913;-72
2023/08/01 04:52:30;;;;;;;;;;;23.40;62.40;;;;;;8347338;28;19967;-72
2023/08/01 04:56:30;;;;;;;;;;;23.40;62.40;;;;;;8381707;28;19917;-73
2023/08/01 05:00:31;;;;;;;;;;;23.40;62.40;;;;;;8397620;28;19936;-72
2023/08/01 05:04:31;;;;;;;;;;;23.40;62.40;;;;;;8379406;28;20022;-72
2023/08/01 05:08:32;;;;;;;;;;;23.40;62.50;;;;;;8379020;28;20279;-73
2023/08/01 05:12:33;;;;;;;;;;;23.40;62.40;;;;;;8397672;28;19920;-73
2023/08/01 05:16:33;;;;;;;;;;;23.40;62.40;;;;;;8379776;28;19912;-72
2023/08/01 05:20:34;;;;;;;;;;;23.40;62.50;;;;;;8379216;28;19912;-72
2023/08/01 05:24:34;;;;;;;;;;;23.40;62.40;;;;;;8378764;28;20523;-72
2023/08/01 05:28:35;;;;;;;;;;;23.40;62.50;;;;;;8379175;28;19913;-72
2023/08/01 05:32:36;;;;;;;;;;;23.40;62.50;;;;;;8396708;28;20358;-72
2023/08/01 05:36:37;;;;;;;;;;;23.40;62.40;;;;;;8378662;28;20328;-73
2023/08/01 05:40:37;;;;;;;;;;;23.40;62.60;;;;;;8379046;28;19963;-72
2023/08/01 05:44:38;;;;;;;;;;;23.40;62.50;;;;;;8396707;28;19917;-73
2023/08/01 05:48:38;;;;;;;;;;;23.40;62.50;;;;;;8397728;28;19919;-72
2023/08/01 05:52:39;;;;;;;;;;;23.40;62.50;;;;;;8398550;28;19924;-72
2023/08/01 05:56:39;;;;;;;;;;;23.40;62.60;;;;;;8376716;28;20522;-72
2023/08/01 06:00:40;;;;;;;;;;;23.40;62.60;;;;;;8396334;28;19952;-73
2023/08/01 06:04:40;;;;;;;;;;;23.30;62.60;;;;;;8361420;28;19931;-72
2023/08/01 06:08:41;;;;;;;;;;;23.30;62.60;;;;;;8377106;28;20282;-72
2023/08/01 06:12:41;;;;;;;;;;;23.30;62.60;;;;;;8377847;28;19913;-72
2023/08/01 06:16:42;;;;;;;;;;;23.30;62.60;;;;;;8395516;28;19919;-72
2023/08/01 06:20:43;;;;;;;;;;;23.30;62.60;;;;;;8377371;28;20003;-72
2023/08/01 06:24:43;;;;;;;;;;;23.30;62.60;;;;;;8376784;28;20393;-72
2023/08/01 06:28:44;;;;;;;;;;;23.30;62.60;;;;;;8395181;28;20184;-73
2023/08/01 06:32:44;;;;;;;;;;;23.30;62.50;;;;;;8394652;28;19920;-72
2023/08/01 06:36:45;;;;;;;;;;;23.30;62.60;;;;;;8376283;28;19912;-72
2023/08/01 06:40:45;;;;;;;;;;;23.30;62.50;;;;;;8376773;28;20026;-73
2023/08/01 06:44:46;;;;;;;;;;;23.30;62.60;;;;;;8376636;28;20385;-73
2023/08/01 06:48:46;;;;;;;;;;;23.30;62.60;;;;;;8394534;28;20370;-73
2023/08/01 06:52:47;;;;;;;;;;;23.30;62.60;;;;;;8343509;28;20005;-72
2023/08/01 06:56:47;;;;;;;;;;;23.30;62.60;;;;;;8393905;28;19920;-72
2023/08/01 07:00:48;;;;;;;;;;;23.30;62.60;;;;;;8394082;28;20019;-72
2023/08/01 07:04:48;;;;;;;;;;;23.30;62.50;;;;;;8394325;28;19924;-72
2023/08/01 07:08:49;;;;;;;;;;;23.30;62.60;;;;;;8376151;28;19931;-72
2023/08/01 07:12:49;;;;;;;;;;;23.30;62.60;;;;;;8376051;28;19943;-73
2023/08/01 07:16:50;;;;;;;;;;;23.30;62.60;;;;;;8393393;28;19924;-72
2023/08/01 07:21:00;;;;;;;;;;;23.30;62.60;;;;;;8375218;28;19916;-73
2023/08/01 07:25:01;;;;;;;;;;;23.30;62.60;;;;;;8393076;28;19927;-72
2023/08/01 07:29:01;;;;;;;;;;;23.30;62.60;;;;;;8393668;28;19912;-72
2023/08/01 07:33:02;;;;;;;;;;;23.30;62.60;;;;;;8392555;28;19955;-72
2023/08/01 07:37:03;;;;;;;;;;;23.30;62.60;;;;;;8393380;28;20024;-72
2023/08/01 07:41:04;;;;;;;;;;;23.30;62.60;;;;;;8393423;28;19970;-73
2023/08/01 07:45:05;;;;;;;;;;;23.30;62.70;;;;;;8392903;28;20281;-72
2023/08/01 07:49:05;;;;;;;;;;;23.30;62.70;;;;;;8394142;28;20002;-72
2023/08/01 07:53:06;;;;;;;;;;;23.30;62.70;;;;;;8393465;28;19919;-73
2023/08/01 07:57:06;;;;;;;;;;;23.30;62.70;;;;;;8392767;28;19909;-72
2023/08/01 08:01:07;;;;;;;;;;;23.20;62.70;;;;;;8358165;28;19912;-72
2023/08/01 08:05:08;;;;;;;;;;;23.30;62.80;;;;;;8375178;28;19966;-72
2023/08/01 08:09:08;;;;;;;;;;;23.30;62.80;;;;;;8392698;28;20477;-73
2023/08/01 08:13:09;;;;;;;;;;;23.30;62.70;;;;;;8392856;28;19917;-72
2023/08/01 08:17:09;;;;;;;;;;;23.30;62.60;;;;;;8392935;28;20366;-72
2023/08/01 08:21:10;;;;;;;;;;;23.30;62.70;;;;;;8392794;28;19934;-72
2023/08/01 08:25:10;;;;;;;;;;;23.30;62.60;;;;;;8374715;28;19925;-72
2023/08/01 08:29:11;;;;;;;;;;;23.30;62.70;;;;;;8391736;28;19916;-72
2023/08/01 08:33:17;;;;;;;;;;;23.30;62.60;;;;;;8379276;28;20303;-72
2023/08/01 08:37:18;;;;;;;;;;;23.30;62.60;;;;;;8380809;28;19909;-72
2023/08/01 08:41:22;;;;;;;;;;;23.30;62.70;;;;;;8399260;28;19920;-72
2023/08/01 08:45:23;;;;;;;;;;;23.30;62.70;;;;;;8398308;28;20293;-72
2023/08/01 08:49:24;;;;;;;;;;;23.20;62.60;;;;;;8380388;28;19936;-73
2023/08/01 08:53:25;;;;;;;;;;;23.30;62.70;;;;;;8380626;28;19919;-73
2023/08/01 08:57:26;;;;;;;;;;;23.30;62.70;;;;;;8397549;28;20330;-72
2023/08/01 09:01:27;;;;;;;;;;;23.20;62.60;;;;;;8397979;28;19913;-72
2023/08/01 09:05:30;;;;;;;;;;;23.20;62.60;;;;;;8398358;28;19972;-72
2023/08/01 09:09:31;;;;;;;;;;;23.20;62.60;;;;;;8379646;28;20016;-72
2023/08/01 09:13:32;;;;;;;;;;;23.30;62.70;;;;;;8379405;28;19912;-72
2023/08/01 09:17:32;;;;;;;;;;;23.20;62.60;;;;;;8397450;28;20282;-72
2023/08/01 09:21:34;;;;;;;;;;;23.30;62.70;;;;;;8379465;28;19919;-72
2023/08/01 09:25:34;;;;;;;;;;;23.20;62.60;;;;;;8378033;28;20003;-72
2023/08/01 09:29:35;;;;;;;;;;;23.20;62.60;;;;;;8378981;28;19920;-73
2023/08/01 09:33:42;;;;;;;;;;;23.20;62.70;;;;;;8396571;28;19912;-72
2023/08/01 09:37:43;;;;;;;;;;;23.20;62.70;;;;;;8380540;28;19919;-72
2023/08/01 09:41:44;;;;;;;;;;;23.20;62.70;;;;;;8381090;28;19912;-73
2023/08/01 09:45:53;;;;;;;;;;;23.20;62.60;;;;;;8397491;28;19917;-72
2023/08/01 09:49:54;;;;;;;;;;;23.20;62.70;;;;;;8411021;28;19916;-72
2023/08/01 09:53:55;;;;;;;;;;;23.20;62.60;;;;;;8435272;28;19900;-72
2023/08/01 09:57:57;;;;;;;;;;;23.20;62.70;;;;;;8432673;28;19901;-72
2023/08/01 10:01:58;;;;;;;;;;;23.20;62.60;;;;;;8422020;28;19917;-72
2023/08/01 10:05:59;;;;;;;;;;;23.20;62.70;;;;;;8378165;28;19920;-73
2023/08/01 10:10:00;;;;;;;;;;;23.20;62.70;;;;;;8361089;28;19929;-72
2023/08/01 10:14:02;;;;;;;;;;;23.20;62.70;;;;;;8362393;28;19920;-72
2023/08/01 10:18:03;;;;;;;;;;;23.20;62.60;;;;;;8362493;28;19955;-73
2023/08/01 10:22:05;;;;;;;;;;;23.20;62.70;;;;;;8362152;28;20395;-73
2023/08/01 10:26:07;;;;;;;;;;;23.20;62.60;;;;;;8361593;28;20297;-73
2023/08/01 10:30:09;;;;;;;;;;;23.20;62.70;;;;;;8361057;28;19912;-72
2023/08/01 10:34:13;;;;;;;;;;;23.20;62.60;;;;;;8361237;28;19979;-72
2023/08/01 10:38:13;;;;;;;;;;;23.20;62.60;;;;;;8362648;28;20007;-73
2023/08/01 10:42:14;;;;;;;;;;;23.20;62.60;;;;;;8362902;28;19916;-73
2023/08/01 10:46:15;;;;;;;;;;;23.20;62.60;;;;;;8362563;28;19965;-72
2023/08/01 10:50:16;;;;;;;;;;;23.20;62.70;;;;;;8344955;28;19913;-73
2023/08/01 10:54:21;;;;;;;;;;;23.20;62.60;;;;;;8346414;28;19936;-72
2023/08/01 10:58:26;;;;;;;;;;;23.20;62.60;;;;;;8383124;28;19932;-73
2023/08/01 11:02:27;;;;;;;;;;;23.20;62.60;;;;;;8378725;28;19936;-72
2023/08/01 11:06:28;;;;;;;;;;;23.20;62.60;;;;;;8363111;28;19920;-73
2023/08/01 11:10:32;;;;;;;;;;;23.20;62.70;;;;;;8402767;28;19948;-73
2023/08/01 11:14:33;;;;;;;;;;;23.20;62.70;;;;;;8373449;28;19908;-73
2023/08/01 11:18:51;;;;;;;;;;;23.20;62.70;;;;;;8376725;28;19913;-72
2023/08/01 11:22:53;;;;;;;;;;;23.20;62.70;;;;;;8394800;28;19958;-72
2023/08/01 11:26:54;;;;;;;;;;;23.20;62.70;;;;;;8376054;28;19912;-72
2023/08/01 11:30:55;;;;;;;;;;;23.20;62.70;;;;;;8394259;28;19915;-72
2023/08/01 11:34:56;;;;;;;;;;;23.20;62.70;;;;;;8394301;28;19966;-72
2023/08/01 11:38:58;;;;;;;;;;;23.20;62.70;;;;;;8393707;28;20370;-72
2023/08/01 11:42:58;;;;;;;;;;;23.20;62.70;;;;;;8394112;28;20003;-72
2023/08/01 11:46:59;;;;;;;;;;;23.20;63.40;;;;;;8393541;28;19930;-72
2023/08/01 11:51:00;;;;;;;;;;;23.20;62.70;;;;;;8374446;28;20352;-73
2023/08/01 11:55:01;;;;;;;;;;;23.20;62.60;;;;;;8393155;28;19913;-72
2023/08/01 11:59:07;;;;;;;;;;;23.20;62.70;;;;;;8393075;28;20003;-72
2023/08/01 12:03:15;;;;;;;;;;;23.20;62.60;;;;;;8393064;28;19915;-72
2023/08/01 12:07:16;;;;;;;;;;;23.20;62.60;;;;;;8395788;28;19913;-72
2023/08/01 12:11:20;;;;;;;;;;;23.20;62.60;;;;;;8352986;28;19921;-72
2023/08/01 12:15:20;;;;;;;;;;;23.20;62.60;;;;;;8366371;28;20247;-73
2023/08/01 12:19:21;;;;;;;;;;;23.20;62.70;;;;;;8367036;28;19921;-73
2023/08/01 12:23:21;;;;;;;;;;;23.20;62.60;;;;;;8366017;28;19962;-72
2023/08/01 12:27:22;;;;;;;;;;;23.20;62.60;;;;;;8365172;28;19917;-72
2023/08/01 12:31:23;;;;;;;;;;;23.20;62.60;;;;;;8364228;28;20414;-73
2023/08/01 12:35:23;;;;;;;;;;;23.20;62.60;;;;;;8365748;28;19908;-72
2023/08/01 12:39:25;;;;;;;;;;;23.20;62.60;;;;;;8364281;28;19913;-72
2023/08/01 12:43:26;;;;;;;;;;;23.20;62.60;;;;;;8365443;28;19913;-72
2023/08/01 12:47:26;;;;;;;;;;;23.20;62.60;;;;;;8363782;28;19920;-73
2023/08/01 12:51:27;;;;;;;;;;;23.20;62.60;;;;;;8363846;28;19919;-73
2023/08/01 12:55:27;;;;;;;;;;;23.20;62.70;;;;;;8363222;28;19921;-73
2023/08/01 12:59:28;;;;;;;;;;;23.20;62.60;;;;;;8346800;28;19959;-72
2023/08/01 13:03:28;;;;;;;;;;;23.20;62.60;;;;;;8364887;28;19920;-72
2023/08/01 13:07:32;;;;;;;;;;;23.20;62.60;;;;;;8346659;28;20396;-73
2023/08/01 13:11:32;;;;;;;;;;;23.10;62.60;;;;;;8394999;28;19924;-73
2023/08/01 13:15:33;;;;;;;;;;;23.20;62.60;;;;;;8397620;28;19913;-72
2023/08/01 13:19:33;;;;;;;;;;;23.20;62.60;;;;;;8361968;28;20427;-72
2023/08/01 13:23:36;;;;;;;;;;;23.20;62.60;;;;;;8379412;28;20217;-72
2023/08/01 13:27:37;;;;;;;;;;;23.20;62.60;;;;;;8378765;28;20021;-72
2023/08/01 13:31:37;;;;;;;;;;;23.20;63.40;;;;;;8379110;28;19916;-72
2023/08/01 13:35:38;;;;;;;;;;;23.20;62.60;;;;;;8378743;28;19908;-72
2023/08/01 13:39:38;;;;;;;;;;;23.10;62.60;;;;;;8396624;28;19913;-73
2023/08/01 13:43:39;;;;;;;;;;;23.10;62.60;;;;;;8361971;28;20058;-72
2023/08/01 13:47:39;;;;;;;;;;;23.10;62.60;;;;;;8395802;28;19920;-73
2023/08/01 13:51:40;;;;;;;;;;;23.20;62.60;;;;;;8362074;28;19913;-72
2023/08/01 13:55:40;;;;;;;;;;;23.20;62.60;;;;;;8402527;28;19920;-73
2023/08/01 13:59:41;;;;;;;;;;;23.20;62.60;;;;;;8419174;28;20023;-72
2023/08/01 14:03:41;;;;;;;;;;;23.20;62.60;;;;;;8437633;28;19901;-72
2023/08/01 14:07:42;;;;;;;;;;;23.20;62.60;;;;;;8433902;28;19920;-72
2023/08/01 14:11:43;;;;;;;;;;;23.20;62.60;;;;;;8433206;28;19924;-72
2023/08/01 14:15:43;;;;;;;;;;;23.20;62.60;;;;;;8415417;28;19904;-73
2023/08/01 14:19:44;;;;;;;;;;;23.10;62.60;;;;;;8410298;28;20378;-72
2023/08/01 14:23:44;;;;;;;;;;;23.20;62.60;;;;;;8396097;28;20255;-72
2023/08/01 14:27:45;;;;;;;;;;;23.10;62.60;;;;;;8377679;28;19920;-72
2023/08/01 14:31:46;;;;;;;;;;;23.20;62.60;;;;;;8395423;28;19909;-72
2023/08/01 14:35:46;;;;;;;;;;;23.20;62.70;;;;;;8377184;28;19920;-72
2023/08/01 14:39:47;;;;;;;;;;;23.20;62.60;;;;;;8395039;28;19919;-72
2023/08/01 14:43:48;;;;;;;;;;;23.20;62.70;;;;;;8394856;28;20275;-72
2023/08/01 14:47:48;;;;;;;;;;;23.10;62.60;;;;;;8376872;28;20224;-72
2023/08/01 14:51:52;;;;;;;;;;;23.10;62.60;;;;;;8393519;28;19912;-72
2023/08/01 14:55:56;;;;;;;;;;;23.10;62.60;;;;;;8394321;28;19909;-74
2023/08/01 14:59:56;;;;;;;;;;;23.10;62.30;;;;;;8394439;28;19948;-72
2023/08/01 15:03:57;;;;;;;;;;;23.10;62.70;;;;;;8395456;28;19913;-72
2023/08/01 15:07:57;;;;;;;;;;;23.10;62.80;;;;;;8393637;28;19917;-72
2023/08/01 15:11:58;;;;;;;;;;;23.30;62.20;;;;;;8393868;28;19928;-72
2023/08/01 15:15:59;;;;;;;;;;;23.60;61.40;;;;;;8375940;28;19920;-72
2023/08/01 15:19:59;;;;;;;;;;;23.60;61.50;;;;;;8393713;28;20307;-73
2023/08/01 15:24:00;;;;;;;;;;;23.60;62.00;;;;;;8375904;28;19912;-73
2023/08/01 15:28:01;;;;;;;;;;;23.80;61.70;;;;;;8358497;28;19916;-73
2023/08/01 15:32:01;;;;;;;;;;;23.80;61.50;;;;;;8375824;28;19923;-73
2023/08/01 15:36:03;;;;;;;;;;;23.70;61.90;;;;;;8393699;28;20362;-74
2023/08/01 15:40:04;;;;;;;;;;;23.60;62.50;;;;;;8376006;28;19912;-72
2023/08/01 15:44:05;;;;;;;;;;;23.40;62.50;;;;;;8392713;28;19991;-72
2023/08/01 15:48:05;;;;;;;;;;;23.40;63.20;;;;;;8393381;28;19920;-72
2023/08/01 15:52:06;;;;;;;;;;;23.30;60.80;;;;;;8375486;28;19912;-73
2023/08/01 15:56:07;;;;;;;;;;;23.30;61.30;;;;;;8392764;28;20374;-72
2023/08/01 16:00:09;;;;;;;;;;;23.30;60.80;;;;;;8393228;28;19908;-72
2023/08/01 16:04:10;;;;;;;;;;;23.30;60.50;;;;;;8375153;28;19920;-73
2023/08/01 16:08:13;;;;;;;;;;;23.30;60.10;;;;;;8358103;28;19916;-72
2023/08/01 16:12:14;;;;;;;;;;;23.30;59.60;;;;;;8392725;28;20003;-73
2023/08/01 16:16:14;;;;;;;;;;;23.30;59.50;;;;;;8392699;28;19912;-73
2023/08/01 16:20:15;;;;;;;;;;;23.30;59.50;;;;;;8389571;28;19971;-72
2023/08/01 16:24:16;;;;;;;;;;;23.30;58.70;;;;;;8375898;28;19909;-73
2023/08/01 16:28:16;;;;;;;;;;;23.30;59.10;;;;;;8359766;28;19970;-73
2023/08/01 16:32:17;;;;;;;;;;;23.30;58.90;;;;;;8394574;28;20263;-72
2023/08/01 16:36:17;;;;;;;;;;;23.40;58.80;;;;;;8376676;28;19920;-72
2023/08/01 16:40:18;;;;;;;;;;;23.40;59.00;;;;;;8376690;28;19962;-75
2023/08/01 16:44:18;;;;;;;;;;;23.40;59.00;;;;;;8376633;28;19916;-74
2023/08/01 16:48:19;;;;;;;;;;;23.50;59.20;;;;;;8376378;28;19917;-74
2023/08/01 16:52:20;;;;;;;;;;;23.50;59.40;;;;;;8394502;28;19919;-75
2023/08/01 16:56:20;;;;;;;;;;;23.50;59.50;;;;;;8399237;28;19912;-74
2023/08/01 17:00:21;;;;;;;;;;;23.50;59.60;;;;;;8399854;28;20011;-75
2023/08/01 17:04:22;;;;;;;;;;;23.50;59.60;;;;;;8401085;28;19916;-75
2023/08/01 17:08:22;;;;;;;;;;;23.50;59.80;;;;;;8382299;28;19929;-75
2023/08/01 17:12:23;;;;;;;;;;;23.50;59.80;;;;;;8381867;28;19919;-75
2023/08/01 17:16:23;;;;;;;;;;;23.50;59.90;;;;;;8399538;28;19917;-74
2023/08/01 17:20:24;;;;;;;;;;;23.50;59.90;;;;;;8399498;28;19919;-75
2023/08/01 17:24:24;;;;;;;;;;;23.40;58.80;;;;;;8398741;28;19908;-75
2023/08/01 17:28:25;;;;;;;;;;;23.40;58.30;;;;;;8381252;28;20282;-74
2023/08/01 17:32:25;;;;;;;;;;;23.40;57.50;;;;;;8399202;28;19928;-74
2023/08/01 17:36:26;;;;;;;;;;;23.40;56.70;;;;;;8398496;28;20369;-75
2023/08/01 17:40:26;;;;;;;;;;;23.40;55.30;;;;;;8399031;28;20277;-73
2023/08/01 17:44:27;;;;;;;;;;;23.40;56.30;;;;;;8380900;28;19912;-74
2023/08/01 17:48:28;;;;;;;;;;;23.40;56.30;;;;;;8397388;28;19925;-75
2023/08/01 17:52:28;;;;;;;;;;;23.40;56.50;;;;;;8397679;28;20305;-72
2023/08/01 17:56:29;;;;;;;;;;;23.50;56.40;;;;;;8398357;28;20331;-76
2023/08/01 18:00:30;;;;;;;;;;;23.40;55.80;;;;;;8380370;28;19912;-74
2023/08/01 18:04:30;;;;;;;;;;;23.40;55.70;;;;;;8379714;28;20392;-75
2023/08/01 18:08:31;;;;;;;;;;;23.40;56.20;;;;;;8379821;28;20344;-75
2023/08/01 18:12:31;;;;;;;;;;;23.40;56.20;;;;;;8378303;28;19959;-75
2023/08/01 18:16:32;;;;;;;;;;;23.40;56.00;;;;;;8398427;28;19916;-76
2023/08/01 18:20:32;;;;;;;;;;;23.40;55.90;;;;;;8381838;28;19920;-79
2023/08/01 18:24:33;;;;;;;;;;;23.40;56.20;;;;;;8383808;28;19935;-76
2023/08/01 18:28:33;;;;;;;;;;;23.40;55.40;;;;;;8394228;28;19939;-77
2023/08/01 18:32:34;;;;;;;;;;;23.40;55.90;;;;;;8378034;28;20254;-74
2023/08/01 18:36:35;;;;;;;;;;;23.40;55.40;;;;;;8415065;28;19913;-72
2023/08/01 18:40:35;;;;;;;;;;;23.30;55.30;;;;;;8405985;28;19928;-74
2023/08/01 18:44:36;;;;;;;;;;;23.30;54.40;;;;;;8438540;28;19916;-75
2023/08/01 18:48:36;;;;;;;;;;;23.30;55.10;;;;;;8437826;28;20144;-71
2023/08/01 18:52:37;;;;;;;;;;;23.40;55.10;;;;;;8433041;28;19913;-75
2023/08/01 18:56:38;;;;;;;;;;;23.30;55.40;;;;;;8396910;28;20392;-74
2023/08/01 19:00:38;;;;;;;;;;;23.30;54.00;;;;;;8397495;28;19912;-75
2023/08/01 19:04:39;;;;;;;;;;;23.20;54.10;;;;;;8396831;28;19908;-75
2023/08/01 19:08:39;;;;;;;;;;;23.30;54.50;;;;;;8396846;28;19924;-76
2023/08/01 19:12:40;;;;;;;;;;;23.30;54.30;;;;;;8378852;28;19912;-77
2023/08/01 19:16:41;;;;;;;;;;;23.40;54.20;;;;;;8377403;28;19913;-74
2023/08/01 19:20:41;;;;;;;;;;;23.50;54.30;;;;;;8396092;28;19912;-74
2023/08/01 19:24:42;;;;;;;;;;;23.50;54.60;;;;;;8378021;28;19916;-76
2023/08/01 19:28:43;;;;;;;;;;;23.50;54.60;;;;;;8396399;28;19912;-74
2023/08/01 19:32:43;;;;;;;;;;;23.50;54.70;;;;;;8351946;28;20382;-76
2023/08/01 19:36:45;;;;;;;;;;;23.50;54.90;;;;;;8389600;28;19913;-76
2023/08/01 19:40:47;;;;;;;;;;;23.50;55.20;;;;;;8376136;28;19951;-76
2023/08/01 19:44:48;;;;;;;;;;;23.50;55.30;;;;;;8394847;28;19962;-76
2023/08/01 19:48:49;;;;;;;;;;;23.50;55.80;;;;;;8394942;28;20010;-76
2023/08/01 19:52:50;;;;;;;;;;;23.60;55.50;;;;;;8377667;28;20273;-73
2023/08/01 19:56:53;;;;;;;;;;;23.60;56.00;;;;;;8377423;28;19920;-77
2023/08/01 20:00:53;;;;;;;;;;;23.60;56.00;;;;;;8395646;28;19947;-76
2023/08/01 20:04:54;;;;;;;;;;;23.60;56.10;;;;;;8395290;28;19909;-76
2023/08/01 20:08:55;;;;;;;;;;;23.70;56.00;;;;;;8360563;28;19931;-76
2023/08/01 20:12:55;;;;;;;;;;;23.70;56.30;;;;;;8377351;28;19923;-76
2023/08/01 20:16:56;;;;;;;;;;;23.70;56.30;;;;;;8395284;28;20313;-76
2023/08/01 20:20:57;;;;;;;;;;;23.70;56.30;;;;;;8376939;28;20285;-76
2023/08/01 20:24:57;;;;;;;;;;;23.70;56.40;;;;;;8394563;28;20007;-76
2023/08/01 20:28:58;;;;;;;;;;;23.70;56.50;;;;;;8398164;28;19917;-76
2023/08/01 20:32:58;;;;;;;;;;;23.70;56.60;;;;;;8383124;28;19920;-76
2023/08/01 20:36:59;;;;;;;;;;;23.70;56.70;;;;;;8401221;28;19912;-76
2023/08/01 20:41:00;;;;;;;;;;;23.70;56.70;;;;;;8383097;28;19919;-77
2023/08/01 20:45:00;;;;;;;;;;;23.70;56.70;;;;;;8382829;28;19929;-76
2023/08/01 20:49:01;;;;;;;;;;;23.70;56.80;;;;;;8400377;28;20041;-76
2023/08/01 20:53:01;;;;;;;;;;;23.80;57.00;;;;;;8382776;28;19917;-76
2023/08/01 20:57:03;;;;;;;;;;;23.80;57.00;;;;;;8382179;28;19969;-76
2023/08/01 21:01:03;;;;;;;;;;;23.70;57.00;;;;;;8398674;28;19913;-76
2023/08/01 21:05:04;;;;;;;;;;;23.70;57.10;;;;;;8400632;28;19928;-77
2023/08/01 21:09:04;;;;;;;;;;;23.70;57.10;;;;;;8399756;28;19999;-74
2023/08/01 21:13:05;;;;;;;;;;;23.70;57.30;;;;;;8349182;28;20278;-74
2023/08/01 21:17:05;;;;;;;;;;;23.80;57.20;;;;;;8365013;28;19921;-74
2023/08/01 21:21:10;;;;;;;;;;;23.70;57.20;;;;;;8399948;28;19917;-74
2023/08/01 21:25:10;;;;;;;;;;;23.80;57.40;;;;;;8397681;28;19924;-74
2023/08/01 21:29:11;;;;;;;;;;;23.80;57.40;;;;;;8381644;28;19925;-74
2023/08/01 21:33:11;;;;;;;;;;;23.80;57.40;;;;;;8382543;28;19917;-74
2023/08/01 21:37:12;;;;;;;;;;;23.80;57.50;;;;;;8399827;28;19957;-74
2023/08/01 21:41:13;;;;;;;;;;;23.70;57.40;;;;;;8397169;28;19923;-74
2023/08/01 21:45:16;;;;;;;;;;;23.80;57.60;;;;;;8398548;28;19919;-74
2023/08/01 21:49:17;;;;;;;;;;;23.70;57.60;;;;;;8398976;28;19908;-74
2023/08/01 21:53:18;;;;;;;;;;;23.70;57.60;;;;;;8398779;28;20380;-74
2023/08/01 21:57:20;;;;;;;;;;;23.80;57.70;;;;;;8379665;28;19912;-74
2023/08/01 22:01:21;;;;;;;;;;;23.80;57.70;;;;;;8397861;28;19921;-74
2023/08/01 22:05:21;;;;;;;;;;;23.80;57.80;;;;;;8361478;28;19920;-72
2023/08/01 22:09:22;;;;;;;;;;;23.70;57.80;;;;;;8360468;28;19928;-73
2023/08/01 22:13:23;;;;;;;;;;;23.70;57.80;;;;;;8377016;28;19920;-71
2023/08/01 22:17:23;;;;;;;;;;;23.70;57.90;;;;;;8394839;28;19916;-73
2023/08/01 22:21:24;;;;;;;;;;;23.60;57.80;;;;;;8395319;28;19913;-73
2023/08/01 22:25:25;;;;;;;;;;;23.60;57.90;;;;;;8394958;28;20508;-73
2023/08/01 22:29:25;;;;;;;;;;;23.60;57.90;;;;;;8395387;28;19920;-73
2023/08/01 22:33:26;;;;;;;;;;;23.50;58.40;;;;;;8377315;28;19948;-73
2023/08/01 22:37:26;;;;;;;;;;;23.50;58.00;;;;;;8394930;28;19957;-73
2023/08/01 22:41:27;;;;;;;;;;;23.50;58.00;;;;;;8376487;28;19912;-73
2023/08/01 22:45:27;;;;;;;;;;;23.50;58.10;;;;;;8394305;28;19924;-73
2023/08/01 22:49:29;;;;;;;;;;;23.50;58.10;;;;;;8376746;28;19919;-73
2023/08/01 22:53:29;;;;;;;;;;;23.50;58.10;;;;;;8376248;28;19931;-73
2023/08/01 22:57:30;;;;;;;;;;;23.50;58.10;;;;;;8376058;28;19916;-73
2023/08/01 23:01:30;;;;;;;;;;;23.40;58.10;;;;;;8376302;28;19974;-73
2023/08/01 23:05:31;;;;;;;;;;;23.40;58.10;;;;;;8393821;28;19917;-73
2023/08/01 23:09:32;;;;;;;;;;;23.40;58.20;;;;;;8375803;28;20039;-73
2023/08/01 23:13:33;;;;;;;;;;;23.40;58.20;;;;;;8375798;28;20341;-73
2023/08/01 23:17:34;;;;;;;;;;;23.40;58.20;;;;;;8393763;28;19919;-73
2023/08/01 23:21:34;;;;;;;;;;;23.40;58.20;;;;;;8393595;28;19916;-73